Provincetown, MA

8:43 AM EDT on April 21, 2015 (GMT -0400)
RAWS | | Change Station
CLOSE
Current Station
Personal Weather Station
Location: Truro, MA
Elevation: 109 ft
Nearby Weather Stations

Elev 109 ft 41.98 °N, 70.02 °W | Updated 31 minutes ago

Overcast
Overcast
56 °F
Feels Like 56 °F
N
6
Wind Variable Wind from South
Gusts 12.0 mph

Today
High -- | Low -- °F
--% Chance of Precip.
Yesterday
High -- | Low -- °F
Precip. -- in
5:51 AM 7:28 PM
Waxing Crescent, 10% visible
Pressure 29.56 in
Visibility 10.0 miles
Clouds Mostly Cloudy 500 ft
Dew Point 56 °F
Humidity 100%
Rainfall in
Snow Depth Not available.
UV 1 out of 12
Pollen 4.30 out of 12
Air Quality Not available.
Flu Activity Widespread
METAR KGHG 211215Z AUTO 22006KT 10SM VCTS BKN005 14/14 A2956 RMK AO2 LTG DSNT E

More Conditions Fewer Conditions

Pressure 29.56 in
Visibility 10.0 miles
Clouds Mostly Cloudy 500 ft
Dew Point 56 °F
Humidity 100%
Rainfall in
Snow Depth Not available.
UV 1 out of 12
Pollen 4.30 out of 12
Air Quality Not available.
Flu Activity Widespread
METAR KGHG 211215Z AUTO 22006KT 10SM VCTS BKN005 14/14 A2956 RMK AO2 LTG DSNT E

More Conditions Fewer Conditions

10-Day Weather Forecast

Almanac

Astronomy

Apr. 21, 2015 Rise Set
Actual Time
Civil Twilight
Nautical Twilight
Astronomical Twilight
Moon
Length of Visible Light
Length of Day
Tomorrow will be .
, % of the Moon is Illuminated

Today's Extremes

State Highs State Lows

Community

WunderPhotos

Upload Photos

1,815,361 photos uploaded!

WunderBlogs® & News

Nearby

Air Quality

  Air Quality AQ Index Pollutant
Not available.

Snow Depth

Station Depth Elevation

Earthquake Activity

City Distance Mag. Time & Date
Minimum magnitude displayed is 2.5.

Coastal Water Temperatures

Place Temperature

Stations

Nearby Weather Stations

Station Location Temp. Windchill Dew Point Humidity Wind Precip. Elev Updated Type
                   
Special Statement
Statement as of 8:14 AM EDT on April 21, 2015

... Patchy dense fog early this morning but conditions will be
improving over the next few hours...

Patchy dense fog was affecting portions of central and eastern
Massachusetts... as well as Rhode Island early this morning.
Conditions should improve over the next few hours... but motorists
are urged to drive with extra caution early this morning.


Frank